Aérodrome :
LOGIN :

S'inscrire | Disclaimer

   EN    FR    IT 

 










Légende :    VFR   VFR Marginal   IFR   IFR Intensif   IFR Très Intensif
Visi : 
Plafond : 
>= 8 km
>= 3000ft
5 à 8 km
1000 à 3000 ft
1500m à 5 km
500 à 1000 ft
800 à 1500m
200 à 500 ft
< 800m
< 200 ft
Symboles :   Orages  Brouillard  Fortes neiges  Fortes précipitations  Vent > 20 kt
SIGMETs :   Divers  Orages  Givrage  Turbulence  Onde Orograph.  Cendres Volcan.






- Altitude de l'aérodrome : 277 ft
- Code IATA : JER


EGJJ - Jersey

DERNIER METAR :
  • 242050Z AUTO 26030G44KT 9999 FEW014/// SCT017/// BKN022/// 12/09 Q0994

METARs EXPIRÉS :
  • 242020Z AUTO 23024G35KT 9999 -DZ SCT014/// BKN017/// BKN023/// 10/09 Q0995 RERA
  • 241950Z 24029G39KT 9999 -SHRA FEW017CB SCT020 BKN026 10/08 Q0995
  • 241920Z 24028G39KT 9999 -SHRA FEW013CB SCT021 BKN025 10/08 Q0995 RESHRA
  • 241850Z 23026KT 9999 -SHRA FEW018CB SCT025 BKN030 12/07 Q0995
  • 241820Z 24025G35KT 9999 VCSH FEW018CB SCT030 12/07 Q0995
  • 241750Z 26026KT 9999 VCSH FEW014 SCT030TCU 12/06 Q0996

TAF TAF EGJJ
Valide du 24 à 21h jusqu'au 25 à 06h UTC


241958Z 2421/2506 27028G40KT 9999 FEW014CB SCT020
TEMPO 2421/2506 7000 SHRA BKN014CB
PROB30
TEMPO 2421/2506 3000 +TSRAGS
BECMG 2423/2501 32025KT
TEMPO 2423/2505 32030G48KT
ATIS : +44 1534 498 073



MET'MAP, la Météo Aéronautique d'un coup d'oeil ! - Copyright ORBIFLY Décembre 2007 - Disclaimer

ORBIFLY MET'MAP TEAM :

Programmation & Développement : Alexandra Zaïnal
Sur une idée originale de : Baudouin d'Aumeries
Assistance à la programmation : Marc-Olivier Méhu
Soutien technique & logistique : Manuel Goepfert

Contact : metmap@orbifly.com




SOURCES & CREDITS :

   NOAA